Terminal Aerodrome Forecast
Issued by NWS

Home | Current Version | Previous Version | Text Only | Print | Product List | Glossary On
Versions: 1 2 3 4 5 6 7 8 9 10 11 12 13 14 15 16 17 18 19 20
000
FTUS45 KRIW 201740
TAFCPR
TAF
KCPR 201740Z 2018/2118 VRB03KT P6SM SCT120 BKN150
     FM202100 27007KT P6SM VCSH SCT060 BKN100
     FM202300 03006KT P6SM -SHRA BKN060
     FM210300 06007KT 6SM -SHRA OVC030
     FM210800 02006KT P6SM VCSH SCT035 OVC050
     FM211200 04006KT P6SM SCT050 BKN100=

USA.gov is the U.S. government's official web portal to all federal, state and local government web resources and services.